Latest Weather Observations for Borrona Downs

IDN60801

Issued at 2:03 pm EDT Saturday 5 December 2020 (issued every 10 minutes, with the page automatically refreshed every 10 minutes)

About weather observations | Map of weather stations | Latest weather observations for NSW | Other Formats
Station Details ID: 046136 Name: BORRONA DOWNS AWS Lat: -29.76 Lon: 143.11 Height: 121.0 m
Data from the previous 72 hours. | See also: Recent months at Borrona Downs
Date/Time
EDT
Temp
°C
App
Temp
°C
Dew
Point
°C
Rel
Hum
%
Delta-T
°C
Wind Press
QNH
hPa
Press
MSL
hPa
Rain since
9am
mm
Dir  Spd
km/h
Gust
km/h
Spd
kts
Gust
kts
05/02:00pm 42.1 - 9.1 14 19.5 - - - - - - - 0.0
05/01:30pm 42.0 - 10.0 15 19.1 - - - - - - - 0.0
05/01:00pm 41.5 - 9.6 15 18.9 - - - - - - - 0.0
05/12:30pm 40.5 - 10.7 17 17.9 - - - - - - - 0.0
05/12:00pm 40.0 - 10.3 17 17.7 - - - - - - - 0.0
05/11:30am 39.4 - 10.7 18 17.2 - - - - - - - 0.0
05/11:00am 40.0 - 12.0 19 17.1 - - - - - - - 0.0
05/10:30am 37.4 - 13.4 24 14.8 - - - - - - - 0.0
05/10:00am 36.4 - 13.8 26 14.0 - - - - - - - 0.0
05/09:30am 35.0 - 14.3 29 12.8 - - - - - - - 0.0
05/09:00am 33.6 - 14.6 31 11.8 - - - - - - - 0.0
05/08:30am 33.2 - 13.8 31 11.8 - - - - - - - -
05/08:00am 32.3 - 13.5 32 11.4 - - - - - - - -
05/07:30am 30.9 - 13.2 34 10.6 - - - - - - - -
05/07:00am 31.0 - 13.3 34 10.6 - - - - - - - -
05/06:30am 31.4 - 13.2 33 10.9 - - - - - - - -
05/06:00am 31.5 - 12.8 32 11.2 - - - - - - - 0.0
05/05:30am 31.9 - 11.7 29 11.9 - - - - - - - 0.0
05/05:00am 31.8 - 8.1 23 13.2 - - - - - - - 0.0
05/04:30am 32.0 - 5.5 19 14.1 - - - - - - - 0.0
05/04:00am 31.9 - 4.6 18 14.3 - - - - - - - 0.0
05/03:30am 31.9 - 4.6 18 14.3 - - - - - - - 0.0
05/03:00am 31.9 - 4.6 18 14.3 - - - - - - - 0.0
05/02:30am 31.7 - 3.7 17 14.5 - - - - - - - 0.0
05/02:00am 32.3 - 3.3 16 14.9 - - - - - - - 0.0
05/01:30am 32.5 - 2.5 15 15.3 - - - - - - - 0.0
05/01:00am 32.9 - 2.9 15 15.4 - - - - - - - 0.0
05/12:30am 32.9 - 2.9 15 15.4 - - - - - - - 0.0
05/12:00am 32.7 - 3.6 16 15.1 - - - - - - - 0.0
 
Date/Time
EDT
Temp
°C
App
Temp
°C
Dew
Point
°C
Rel
Hum
%
Delta-T
°C
Wind Press
QNH
hPa
Press
MSL
hPa
Rain since
9am
mm
Dir  Spd
km/h
Gust
km/h
Spd
kts
Gust
kts
04/11:30pm 32.6 - 3.5 16 15.1 - - - - - - - 0.0
04/11:00pm 33.0 - 2.9 15 15.5 - - - - - - - 0.0
04/10:30pm 33.8 - 3.6 15 15.8 - - - - - - - 0.0
04/10:00pm 34.3 - 4.0 15 16.0 - - - - - - - 0.0
04/09:30pm 35.4 - 3.9 14 16.7 - - - - - - - 0.0
04/09:00pm 35.9 - 4.2 14 16.9 - - - - - - - 0.0
04/08:30pm 36.6 - 3.7 13 17.5 - - - - - - - 0.0
04/08:00pm 37.1 - 4.1 13 17.7 - - - - - - - 0.0
04/07:30pm 37.9 - 4.7 13 18.0 - - - - - - - 0.0
04/07:00pm 38.4 - 5.1 13 18.2 - - - - - - - 0.0
04/06:30pm 38.7 - 5.4 13 18.4 - - - - - - - 0.0
04/06:00pm 38.5 - 5.2 13 18.3 - - - - - - - 0.0
04/05:30pm 38.4 - 5.1 13 18.2 - - - - - - - 0.0
04/05:00pm 38.6 - 5.3 13 18.3 - - - - - - - 0.0
04/04:30pm 38.6 - 4.1 12 18.6 - - - - - - - 0.0
04/04:00pm 38.4 - 4.0 12 18.5 - - - - - - - 0.0
04/03:30pm 37.7 - 2.2 11 18.5 - - - - - - - 0.0
04/03:00pm 37.8 - 2.3 11 18.6 - - - - - - - 0.0
04/02:30pm 36.7 - 2.7 12 17.8 - - - - - - - 0.0
04/02:00pm 36.5 - 2.5 12 17.7 - - - - - - - 0.0
04/01:30pm 35.9 - -0.5 10 18.0 - - - - - - - 0.0
04/01:00pm 36.1 - -1.7 9 18.4 - - - - - - - 0.0
04/12:30pm 35.2 - -2.4 9 18.0 - - - - - - - 0.0
04/12:00pm 34.4 - -1.6 10 17.3 - - - - - - - 0.0
04/11:30am 33.6 - -2.2 10 17.0 - - - - - - - 0.0
04/11:00am 32.4 - -3.1 10 16.4 - - - - - - - 0.0
04/10:30am 32.5 - -3.0 10 16.5 - - - - - - - 0.0
04/10:00am 30.5 - -2.1 12 15.1 - - - - - - - 0.0
04/09:30am 30.5 - -3.3 11 15.4 - - - - - - - 0.0
04/09:00am 29.7 - -2.7 12 14.8 - - - - - - - 0.0
04/08:30am 29.2 - -3.1 12 14.6 - - - - - - - 0.0
04/08:00am 28.1 - -2.9 13 13.9 - - - - - - - 0.0
04/07:30am 26.9 - -2.8 14 13.3 - - - - - - - 0.0
04/07:00am 26.5 - -2.2 15 12.9 - - - - - - - 0.0
04/06:30am 26.4 - -2.3 15 12.9 - - - - - - - 0.0
04/06:00am 26.6 - -2.1 15 12.9 - - - - - - - 0.0
04/05:30am 26.5 - -3.1 14 13.1 - - - - - - - 0.0
04/05:00am 26.4 - -3.2 14 13.1 - - - - - - - 0.0
04/04:30am 26.8 - -2.9 14 13.2 - - - - - - - 0.0
04/04:00am 26.8 - -2.9 14 13.2 - - - - - - - 0.0
04/03:30am 26.7 - -3.0 14 13.2 - - - - - - - 0.0
04/03:00am 27.0 - -2.7 14 13.3 - - - - - - - 0.0
04/02:30am 27.2 - -2.6 14 13.4 - - - - - - - 0.0
04/02:00am 27.5 - -2.3 14 13.5 - - - - - - - 0.0
04/01:30am 28.0 - -3.0 13 13.9 - - - - - - - 0.0
04/01:00am 28.5 - -2.6 13 14.1 - - - - - - - 0.0
04/12:30am 28.7 - -2.4 13 14.2 - - - - - - - 0.0
04/12:00am 29.3 - -3.0 12 14.6 - - - - - - - 0.0
 
Date/Time
EDT
Temp
°C
App
Temp
°C
Dew
Point
°C
Rel
Hum
%
Delta-T
°C
Wind Press
QNH
hPa
Press
MSL
hPa
Rain since
9am
mm
Dir  Spd
km/h
Gust
km/h
Spd
kts
Gust
kts
03/11:30pm 29.5 - -1.8 13 14.5 - - - - - - - 0.0
03/11:00pm 29.8 - -2.6 12 14.8 - - - - - - - 0.0
03/10:30pm 29.5 - -1.8 13 14.5 - - - - - - - 0.0
03/10:00pm 30.0 - -1.4 13 14.7 - - - - - - - 0.0
03/09:30pm 30.4 - -2.2 12 15.1 - - - - - - - 0.0
03/09:00pm 30.7 - -1.9 12 15.2 - - - - - - - 0.0
03/08:30pm 31.0 - -1.7 12 15.4 - - - - - - - 0.0
03/08:00pm 31.6 - -2.4 11 15.8 - - - - - - - 0.0
03/07:30pm 32.4 - -1.8 11 16.2 - - - - - - - 0.0
03/07:00pm 32.7 - -1.6 11 16.3 - - - - - - - 0.0
03/06:30pm 33.3 - -2.4 10 16.8 - - - - - - - 0.0
03/06:00pm 33.4 - -2.3 10 16.9 - - - - - - - 0.0
03/05:30pm 33.2 - -2.5 10 16.8 - - - - - - - 0.0
03/05:00pm 33.1 - -1.3 11 16.5 - - - - - - - 0.0
03/04:30pm 32.9 - -2.7 10 16.7 - - - - - - - 0.0
03/04:00pm 32.9 - -4.1 9 16.9 - - - - - - - 0.0
03/03:30pm 33.0 - -4.0 9 17.0 - - - - - - - 0.0
03/03:00pm 32.0 - -4.8 9 16.5 - - - - - - - 0.0
03/02:30pm 31.4 - -5.2 9 16.2 - - - - - - - 0.0
03/02:00pm 31.3 - -3.9 10 16.0 - - - - - - - 0.0
03/01:30pm 30.6 - -3.2 11 15.4 - - - - - - - 0.0
03/01:00pm 30.3 - -3.4 11 15.3 - - - - - - - 0.0
03/12:30pm 29.7 - -2.7 12 14.8 - - - - - - - 0.0
03/12:00pm 28.6 - -2.5 13 14.1 - - - - - - - 0.0
03/11:30am 28.0 - -2.0 14 13.7 - - - - - - - 0.0
03/11:00am 27.3 - -1.6 15 13.2 - - - - - - - 0.0
03/10:30am 26.4 - -1.4 16 12.7 - - - - - - - 0.0
03/10:00am 26.0 - -1.7 16 12.5 - - - - - - - 0.0
03/09:30am 25.9 - -1.8 16 12.5 - - - - - - - 0.0
03/09:00am 24.9 - -1.8 17 11.9 - - - - - - - 0.0
03/08:30am 24.4 - -1.4 18 11.6 - - - - - - - 0.0
03/08:00am 23.6 - -1.3 19 11.1 - - - - - - - 0.0
03/07:30am 22.8 - -0.6 21 10.5 - - - - - - - 0.0
03/07:00am 22.8 - -1.3 20 10.7 - - - - - - - 0.0
03/06:30am 22.8 - -1.3 20 10.7 - - - - - - - 0.0
03/06:00am 22.9 - -1.2 20 10.7 - - - - - - - 0.0
03/05:30am 22.8 - -1.3 20 10.7 - - - - - - - 0.0
03/05:00am 22.6 - -1.5 20 10.6 - - - - - - - 0.0
03/04:30am 22.6 - -1.5 20 10.6 - - - - - - - 0.0
03/04:00am 22.4 - -2.3 19 10.7 - - - - - - - 0.0
03/03:30am 22.5 - -3.0 18 10.9 - - - - - - - 0.0
03/03:00am 22.6 - -2.9 18 10.9 - - - - - - - 0.0
03/02:30am 22.7 - -2.8 18 11.0 - - - - - - - 0.0
03/02:00am 23.0 - -3.3 17 11.2 - - - - - - - 0.0
03/01:30am 23.4 - -3.8 16 11.6 - - - - - - - 0.0
03/01:00am 23.6 - -4.5 15 11.8 - - - - - - - 0.0
03/12:30am 23.8 - -3.5 16 11.7 - - - - - - - 0.0
03/12:00am 23.9 - -4.3 15 11.9 - - - - - - - 0.0
 
Date/Time
EDT
Temp
°C
App
Temp
°C
Dew
Point
°C
Rel
Hum
%
Delta-T
°C
Wind Press
QNH
hPa
Press
MSL
hPa
Rain since
9am
mm
Dir  Spd
km/h
Gust
km/h
Spd
kts
Gust
kts
02/11:30pm 24.2 - -3.2 16 11.9 - - - - - - - 0.0
02/11:00pm 24.5 - -2.9 16 12.0 - - - - - - - 0.0
02/10:30pm 24.8 - -3.6 15 12.3 - - - - - - - 0.0
02/10:00pm 25.2 - -3.2 15 12.4 - - - - - - - 0.0
02/09:30pm 25.5 - -3.9 14 12.7 - - - - - - - 0.0
02/09:00pm 25.9 - -2.7 15 12.7 - - - - - - - 0.0
02/08:30pm 26.1 - -2.5 15 12.7 - - - - - - - 0.0
02/08:00pm 27.6 - -5.5 11 14.1 - - - - - - - 0.0
02/07:30pm 28.0 - -6.4 10 14.5 - - - - - - - 0.0
02/07:00pm 28.5 - -6.0 10 14.7 - - - - - - - 0.0
02/06:30pm 28.8 - -4.6 11 14.7 - - - - - - - 0.0
02/06:00pm 29.6 - -3.9 11 15.0 - - - - - - - 0.0
02/05:30pm 30.3 - -2.2 12 15.0 - - - - - - - 0.0
02/05:00pm 30.3 - -0.1 14 14.6 - - - - - - - 0.0
02/04:30pm 30.5 - 1.0 15 14.5 - - - - - - - 0.0
02/04:00pm 30.2 - 0.7 15 14.4 - - - - - - - 0.0
02/03:30pm 30.3 - 1.7 16 14.2 - - - - - - - 0.0
02/03:00pm 30.4 - 1.8 16 14.2 - - - - - - - 0.0
02/02:30pm 30.6 - 1.0 15 14.5 - - - - - - - 0.0

Other formats

Comma delimited format used in spreadsheet applications
http://www.bom.gov.au/fwo/IDN60801/IDN60801.94407.axf

JavaScript Object Notation format (JSON) in row-major order
http://www.bom.gov.au/fwo/IDN60801/IDN60801.94407.json

Data quality

Most of these data are generated automatically and are frequently updated. Quality checks on data are not normally performed. It is possible for incorrect values to appear. Refer to information at About Latest Weather Observations and please check the disclaimer before using these data.